sensor_id;sensor_type;location;lat;lon;timestamp;P1;durP1;ratioP1;P2;durP2;ratioP2
58972;SDS011;44750;52.040;7.472;2022-12-18T00:02:28;14.68;;;9.23;;
58972;SDS011;44750;52.040;7.472;2022-12-18T00:07:29;7.80;;;6.30;;
58972;SDS011;44750;52.040;7.472;2022-12-18T00:12:29;13.20;;;8.00;;
58972;SDS011;44750;52.040;7.472;2022-12-18T00:17:29;8.88;;;7.32;;
58972;SDS011;44750;52.040;7.472;2022-12-18T00:22:29;10.07;;;7.80;;
58972;SDS011;44750;52.040;7.472;2022-12-18T00:27:29;11.82;;;7.78;;
58972;SDS011;44750;52.040;7.472;2022-12-18T00:32:30;13.07;;;8.93;;
58972;SDS011;44750;52.040;7.472;2022-12-18T00:37:30;6.95;;;6.25;;
58972;SDS011;44750;52.040;7.472;2022-12-18T00:42:30;12.55;;;8.38;;
58972;SDS011;44750;52.040;7.472;2022-12-18T00:47:30;10.55;;;7.43;;
58972;SDS011;44750;52.040;7.472;2022-12-18T00:52:31;7.18;;;6.38;;
58972;SDS011;44750;52.040;7.472;2022-12-18T00:57:31;9.85;;;7.88;;
58972;SDS011;44750;52.040;7.472;2022-12-18T01:02:31;5.65;;;4.93;;
58972;SDS011;44750;52.040;7.472;2022-12-18T01:07:31;14.10;;;7.07;;
58972;SDS011;44750;52.040;7.472;2022-12-18T01:12:32;9.37;;;7.23;;
58972;SDS011;44750;52.040;7.472;2022-12-18T01:17:32;10.10;;;6.22;;
58972;SDS011;44750;52.040;7.472;2022-12-18T01:22:33;9.43;;;6.65;;
58972;SDS011;44750;52.040;7.472;2022-12-18T01:27:33;9.48;;;7.25;;
58972;SDS011;44750;52.040;7.472;2022-12-18T01:32:34;11.32;;;7.45;;
58972;SDS011;44750;52.040;7.472;2022-12-18T01:37:34;10.07;;;6.97;;
58972;SDS011;44750;52.040;7.472;2022-12-18T01:42:34;10.68;;;7.47;;
58972;SDS011;44750;52.040;7.472;2022-12-18T01:47:36;16.98;;;7.53;;
58972;SDS011;44750;52.040;7.472;2022-12-18T01:52:41;12.07;;;7.53;;
58972;SDS011;44750;52.040;7.472;2022-12-18T01:57:43;10.27;;;6.80;;
58972;SDS011;44750;52.040;7.472;2022-12-18T02:08:03;8.18;;;5.28;;
58972;SDS011;44750;52.040;7.472;2022-12-18T02:18:38;7.78;;;5.78;;
58972;SDS011;44750;52.040;7.472;2022-12-18T02:23:47;8.60;;;5.18;;
58972;SDS011;44750;52.040;7.472;2022-12-18T02:29:03;8.70;;;5.55;;
58972;SDS011;44750;52.040;7.472;2022-12-18T02:34:08;8.32;;;5.38;;
58972;SDS011;44750;52.040;7.472;2022-12-18T02:39:10;7.28;;;4.97;;
58972;SDS011;44750;52.040;7.472;2022-12-18T02:44:15;4.53;;;3.90;;
58972;SDS011;44750;52.040;7.472;2022-12-18T02:49:27;4.18;;;3.50;;
58972;SDS011;44750;52.040;7.472;2022-12-18T02:54:51;3.60;;;2.97;;
58972;SDS011;44750;52.040;7.472;2022-12-18T03:00:09;6.45;;;4.55;;
58972;SDS011;44750;52.040;7.472;2022-12-18T03:05:20;5.75;;;4.57;;
58972;SDS011;44750;52.040;7.472;2022-12-18T03:10:25;4.82;;;3.95;;
58972;SDS011;44750;52.040;7.472;2022-12-18T03:15:30;4.07;;;3.67;;
58972;SDS011;44750;52.040;7.472;2022-12-18T03:20:34;7.93;;;4.38;;
58972;SDS011;44750;52.040;7.472;2022-12-18T03:25:39;6.32;;;4.03;;
58972;SDS011;44750;52.040;7.472;2022-12-18T03:30:43;4.70;;;4.07;;
58972;SDS011;44750;52.040;7.472;2022-12-18T03:35:45;9.48;;;4.57;;
58972;SDS011;44750;52.040;7.472;2022-12-18T03:46:11;2.88;;;2.60;;
58972;SDS011;44750;52.040;7.472;2022-12-18T03:51:22;4.03;;;3.03;;
58972;SDS011;44750;52.040;7.472;2022-12-18T03:56:25;3.70;;;2.90;;
58972;SDS011;44750;52.040;7.472;2022-12-18T04:01:37;7.53;;;4.53;;
58972;SDS011;44750;52.040;7.472;2022-12-18T04:06:40;3.97;;;2.70;;
58972;SDS011;44750;52.040;7.472;2022-12-18T04:11:42;4.07;;;3.45;;
58972;SDS011;44750;52.040;7.472;2022-12-18T04:16:42;3.08;;;2.72;;
58972;SDS011;44750;52.040;7.472;2022-12-18T04:21:43;3.03;;;2.53;;
58972;SDS011;44750;52.040;7.472;2022-12-18T04:26:43;4.05;;;3.33;;
58972;SDS011;44750;52.040;7.472;2022-12-18T04:31:43;5.00;;;4.20;;
58972;SDS011;44750;52.040;7.472;2022-12-18T04:36:43;2.30;;;1.88;;
58972;SDS011;44750;52.040;7.472;2022-12-18T04:41:44;2.65;;;1.95;;
58972;SDS011;44750;52.040;7.472;2022-12-18T04:46:44;2.80;;;2.60;;
58972;SDS011;44750;52.040;7.472;2022-12-18T04:51:44;3.25;;;2.80;;
58972;SDS011;44750;52.040;7.472;2022-12-18T04:56:44;2.70;;;2.50;;
58972;SDS011;44750;52.040;7.472;2022-12-18T05:01:44;6.10;;;3.60;;
58972;SDS011;44750;52.040;7.472;2022-12-18T05:06:45;3.90;;;3.30;;
58972;SDS011;44750;52.040;7.472;2022-12-18T05:11:45;7.35;;;4.10;;
58972;SDS011;44750;52.040;7.472;2022-12-18T05:16:45;4.30;;;3.67;;
58972;SDS011;44750;52.040;7.472;2022-12-18T05:21:45;3.03;;;2.58;;
58972;SDS011;44750;52.040;7.472;2022-12-18T05:26:46;4.28;;;3.08;;
58972;SDS011;44750;52.040;7.472;2022-12-18T05:31:46;2.50;;;2.30;;
58972;SDS011;44750;52.040;7.472;2022-12-18T05:36:46;3.70;;;2.67;;
58972;SDS011;44750;52.040;7.472;2022-12-18T05:41:46;2.70;;;2.40;;
58972;SDS011;44750;52.040;7.472;2022-12-18T05:46:47;2.90;;;2.60;;
58972;SDS011;44750;52.040;7.472;2022-12-18T05:51:47;2.63;;;2.42;;
58972;SDS011;44750;52.040;7.472;2022-12-18T05:56:47;4.47;;;2.97;;
58972;SDS011;44750;52.040;7.472;2022-12-18T06:01:48;3.13;;;2.28;;
58972;SDS011;44750;52.040;7.472;2022-12-18T06:06:48;3.67;;;3.10;;
58972;SDS011;44750;52.040;7.472;2022-12-18T06:11:49;3.53;;;2.40;;
58972;SDS011;44750;52.040;7.472;2022-12-18T06:16:51;5.05;;;3.17;;
58972;SDS011;44750;52.040;7.472;2022-12-18T06:21:51;2.42;;;2.22;;
58972;SDS011;44750;52.040;7.472;2022-12-18T06:26:52;2.45;;;2.22;;
58972;SDS011;44750;52.040;7.472;2022-12-18T06:31:53;2.42;;;2.17;;
58972;SDS011;44750;52.040;7.472;2022-12-18T06:36:53;4.40;;;2.70;;
58972;SDS011;44750;52.040;7.472;2022-12-18T06:41:53;1.90;;;1.80;;
58972;SDS011;44750;52.040;7.472;2022-12-18T06:46:53;6.28;;;2.85;;
58972;SDS011;44750;52.040;7.472;2022-12-18T06:51:54;2.97;;;2.38;;
58972;SDS011;44750;52.040;7.472;2022-12-18T06:56:57;2.33;;;2.17;;
58972;SDS011;44750;52.040;7.472;2022-12-18T07:01:57;2.88;;;2.63;;
58972;SDS011;44750;52.040;7.472;2022-12-18T07:06:57;6.13;;;3.42;;
58972;SDS011;44750;52.040;7.472;2022-12-18T07:11:57;2.83;;;2.53;;
58972;SDS011;44750;52.040;7.472;2022-12-18T07:16:58;4.35;;;3.50;;
58972;SDS011;44750;52.040;7.472;2022-12-18T07:21:58;3.67;;;3.05;;
58972;SDS011;44750;52.040;7.472;2022-12-18T07:26:58;4.30;;;3.58;;
58972;SDS011;44750;52.040;7.472;2022-12-18T07:31:58;3.63;;;3.30;;
58972;SDS011;44750;52.040;7.472;2022-12-18T07:36:59;3.50;;;3.20;;
58972;SDS011;44750;52.040;7.472;2022-12-18T07:42:00;4.25;;;3.85;;
58972;SDS011;44750;52.040;7.472;2022-12-18T07:47:01;5.40;;;3.40;;
58972;SDS011;44750;52.040;7.472;2022-12-18T07:52:01;4.70;;;3.75;;
58972;SDS011;44750;52.040;7.472;2022-12-18T07:57:01;2.70;;;2.47;;
58972;SDS011;44750;52.040;7.472;2022-12-18T08:02:01;3.88;;;2.85;;
58972;SDS011;44750;52.040;7.472;2022-12-18T08:07:01;3.58;;;3.13;;
58972;SDS011;44750;52.040;7.472;2022-12-18T08:12:02;2.90;;;2.65;;
58972;SDS011;44750;52.040;7.472;2022-12-18T08:17:02;2.50;;;2.30;;
58972;SDS011;44750;52.040;7.472;2022-12-18T08:22:03;9.90;;;2.88;;
58972;SDS011;44750;52.040;7.472;2022-12-18T08:27:03;2.40;;;2.20;;
58972;SDS011;44750;52.040;7.472;2022-12-18T08:32:03;4.63;;;3.35;;
58972;SDS011;44750;52.040;7.472;2022-12-18T08:37:04;3.25;;;2.72;;
58972;SDS011;44750;52.040;7.472;2022-12-18T08:42:04;3.53;;;3.22;;
58972;SDS011;44750;52.040;7.472;2022-12-18T08:47:05;3.42;;;2.78;;
58972;SDS011;44750;52.040;7.472;2022-12-18T08:52:06;4.03;;;3.08;;
58972;SDS011;44750;52.040;7.472;2022-12-18T08:57:06;4.70;;;3.40;;
58972;SDS011;44750;52.040;7.472;2022-12-18T09:02:08;3.05;;;2.50;;
58972;SDS011;44750;52.040;7.472;2022-12-18T09:07:10;3.67;;;3.00;;
58972;SDS011;44750;52.040;7.472;2022-12-18T09:12:10;2.63;;;2.33;;
58972;SDS011;44750;52.040;7.472;2022-12-18T09:17:10;3.50;;;3.00;;
58972;SDS011;44750;52.040;7.472;2022-12-18T09:22:11;5.88;;;3.35;;
58972;SDS011;44750;52.040;7.472;2022-12-18T09:27:11;3.72;;;2.63;;
58972;SDS011;44750;52.040;7.472;2022-12-18T09:32:11;3.55;;;3.13;;
58972;SDS011;44750;52.040;7.472;2022-12-18T09:37:11;3.90;;;3.05;;
58972;SDS011;44750;52.040;7.472;2022-12-18T09:42:17;3.70;;;3.13;;
58972;SDS011;44750;52.040;7.472;2022-12-18T09:47:25;4.35;;;3.20;;
58972;SDS011;44750;52.040;7.472;2022-12-18T09:52:37;2.65;;;2.45;;
58972;SDS011;44750;52.040;7.472;2022-12-18T09:58:28;2.53;;;2.33;;
58972;SDS011;44750;52.040;7.472;2022-12-18T10:03:14;3.63;;;3.25;;
58972;SDS011;44750;52.040;7.472;2022-12-18T10:08:17;3.38;;;2.97;;
58972;SDS011;44750;52.040;7.472;2022-12-18T10:13:40;2.95;;;2.70;;
58972;SDS011;44750;52.040;7.472;2022-12-18T10:24:18;4.13;;;3.28;;
58972;SDS011;44750;52.040;7.472;2022-12-18T10:29:31;2.80;;;2.38;;
58972;SDS011;44750;52.040;7.472;2022-12-18T10:34:31;2.45;;;2.25;;
58972;SDS011;44750;52.040;7.472;2022-12-18T10:39:31;2.38;;;2.17;;
58972;SDS011;44750;52.040;7.472;2022-12-18T10:44:31;3.40;;;2.83;;
58972;SDS011;44750;52.040;7.472;2022-12-18T10:49:32;4.25;;;2.97;;
58972;SDS011;44750;52.040;7.472;2022-12-18T10:54:34;5.68;;;3.05;;
58972;SDS011;44750;52.040;7.472;2022-12-18T10:59:49;2.58;;;2.38;;
58972;SDS011;44750;52.040;7.472;2022-12-18T11:04:51;5.32;;;3.63;;
58972;SDS011;44750;52.040;7.472;2022-12-18T11:10:04;2.10;;;1.90;;
58972;SDS011;44750;52.040;7.472;2022-12-18T11:15:05;2.95;;;2.70;;
58972;SDS011;44750;52.040;7.472;2022-12-18T11:20:10;3.20;;;2.50;;
58972;SDS011;44750;52.040;7.472;2022-12-18T11:30:24;4.78;;;2.58;;
58972;SDS011;44750;52.040;7.472;2022-12-18T11:40:30;3.40;;;2.30;;
58972;SDS011;44750;52.040;7.472;2022-12-18T11:45:35;2.72;;;2.30;;
58972;SDS011;44750;52.040;7.472;2022-12-18T11:50:54;2.97;;;2.67;;
58972;SDS011;44750;52.040;7.472;2022-12-18T12:01:09;5.47;;;3.13;;
58972;SDS011;44750;52.040;7.472;2022-12-18T12:16:58;3.95;;;3.05;;
58972;SDS011;44750;52.040;7.472;2022-12-18T12:27:37;4.57;;;3.10;;
58972;SDS011;44750;52.040;7.472;2022-12-18T12:48:45;3.67;;;3.05;;
58972;SDS011;44750;52.040;7.472;2022-12-18T12:53:48;5.43;;;2.97;;
58972;SDS011;44750;52.040;7.472;2022-12-18T12:58:52;2.63;;;2.40;;
58972;SDS011;44750;52.040;7.472;2022-12-18T13:09:33;2.85;;;2.42;;
58972;SDS011;44750;52.040;7.472;2022-12-18T13:14:52;3.28;;;2.75;;
58972;SDS011;44750;52.040;7.472;2022-12-18T13:20:02;2.55;;;2.35;;
58972;SDS011;44750;52.040;7.472;2022-12-18T13:25:26;3.33;;;2.28;;
58972;SDS011;44750;52.040;7.472;2022-12-18T13:35:38;2.85;;;2.55;;
58972;SDS011;44750;52.040;7.472;2022-12-18T13:45:59;3.13;;;2.20;;
58972;SDS011;44750;52.040;7.472;2022-12-18T13:51:06;5.28;;;3.13;;
58972;SDS011;44750;52.040;7.472;2022-12-18T13:56:08;2.13;;;1.98;;
58972;SDS011;44750;52.040;7.472;2022-12-18T14:01:21;2.38;;;2.17;;
58972;SDS011;44750;52.040;7.472;2022-12-18T14:06:22;2.25;;;2.05;;
58972;SDS011;44750;52.040;7.472;2022-12-18T14:11:25;2.15;;;2.03;;
58972;SDS011;44750;52.040;7.472;2022-12-18T14:16:26;2.45;;;2.20;;
58972;SDS011;44750;52.040;7.472;2022-12-18T14:21:27;2.20;;;2.00;;
58972;SDS011;44750;52.040;7.472;2022-12-18T14:26:29;3.72;;;2.92;;
58972;SDS011;44750;52.040;7.472;2022-12-18T14:31:31;3.38;;;2.95;;
58972;SDS011;44750;52.040;7.472;2022-12-18T14:36:31;3.47;;;2.00;;
58972;SDS011;44750;52.040;7.472;2022-12-18T14:41:32;3.47;;;2.60;;
58972;SDS011;44750;52.040;7.472;2022-12-18T14:51:33;3.03;;;2.45;;
58972;SDS011;44750;52.040;7.472;2022-12-18T14:56:34;2.15;;;2.00;;
58972;SDS011;44750;52.040;7.472;2022-12-18T15:01:37;3.75;;;3.30;;
58972;SDS011;44750;52.040;7.472;2022-12-18T15:06:45;2.65;;;2.45;;
58972;SDS011;44750;52.040;7.472;2022-12-18T15:11:46;5.63;;;2.70;;
58972;SDS011;44750;52.040;7.472;2022-12-18T15:16:49;2.50;;;2.28;;
58972;SDS011;44750;52.040;7.472;2022-12-18T15:21:51;1.80;;;1.67;;
58972;SDS011;44750;52.040;7.472;2022-12-18T15:26:51;2.58;;;2.33;;
58972;SDS011;44750;52.040;7.472;2022-12-18T15:31:59;4.28;;;2.38;;
58972;SDS011;44750;52.040;7.472;2022-12-18T15:37:00;5.30;;;3.10;;
58972;SDS011;44750;52.040;7.472;2022-12-18T15:42:01;2.47;;;2.28;;
58972;SDS011;44750;52.040;7.472;2022-12-18T15:47:01;23.70;;;2.70;;
58972;SDS011;44750;52.040;7.472;2022-12-18T15:52:02;1.90;;;1.80;;
58972;SDS011;44750;52.040;7.472;2022-12-18T15:57:02;5.03;;;4.13;;
58972;SDS011;44750;52.040;7.472;2022-12-18T16:02:07;3.83;;;3.23;;
58972;SDS011;44750;52.040;7.472;2022-12-18T16:07:15;2.00;;;1.80;;
58972;SDS011;44750;52.040;7.472;2022-12-18T16:12:16;1.55;;;1.45;;
58972;SDS011;44750;52.040;7.472;2022-12-18T16:17:20;2.50;;;2.10;;
58972;SDS011;44750;52.040;7.472;2022-12-18T16:22:21;1.70;;;1.60;;
58972;SDS011;44750;52.040;7.472;2022-12-18T16:27:25;8.20;;;3.22;;
58972;SDS011;44750;52.040;7.472;2022-12-18T16:32:25;3.42;;;2.63;;
58972;SDS011;44750;52.040;7.472;2022-12-18T16:37:25;3.63;;;2.20;;
58972;SDS011;44750;52.040;7.472;2022-12-18T16:42:26;3.35;;;2.78;;
58972;SDS011;44750;52.040;7.472;2022-12-18T16:47:26;3.05;;;2.17;;
58972;SDS011;44750;52.040;7.472;2022-12-18T16:52:26;2.38;;;2.17;;
58972;SDS011;44750;52.040;7.472;2022-12-18T16:57:26;1.80;;;1.70;;
58972;SDS011;44750;52.040;7.472;2022-12-18T17:02:27;4.30;;;2.63;;
58972;SDS011;44750;52.040;7.472;2022-12-18T17:07:27;2.40;;;2.13;;
58972;SDS011;44750;52.040;7.472;2022-12-18T17:12:27;3.20;;;2.90;;
58972;SDS011;44750;52.040;7.472;2022-12-18T17:17:28;2.90;;;2.63;;
58972;SDS011;44750;52.040;7.472;2022-12-18T17:22:28;3.03;;;2.58;;
58972;SDS011;44750;52.040;7.472;2022-12-18T17:27:28;4.28;;;3.33;;
58972;SDS011;44750;52.040;7.472;2022-12-18T17:32:29;6.33;;;4.47;;
58972;SDS011;44750;52.040;7.472;2022-12-18T17:37:29;3.97;;;3.10;;
58972;SDS011;44750;52.040;7.472;2022-12-18T17:42:29;3.05;;;2.75;;
58972;SDS011;44750;52.040;7.472;2022-12-18T17:47:29;7.93;;;3.55;;
58972;SDS011;44750;52.040;7.472;2022-12-18T17:52:29;2.45;;;2.13;;
58972;SDS011;44750;52.040;7.472;2022-12-18T17:57:31;3.20;;;2.90;;
58972;SDS011;44750;52.040;7.472;2022-12-18T18:02:31;3.28;;;2.97;;
58972;SDS011;44750;52.040;7.472;2022-12-18T18:07:31;2.90;;;2.70;;
58972;SDS011;44750;52.040;7.472;2022-12-18T18:12:32;2.60;;;2.40;;
58972;SDS011;44750;52.040;7.472;2022-12-18T18:17:32;6.78;;;3.45;;
58972;SDS011;44750;52.040;7.472;2022-12-18T18:22:32;4.20;;;3.58;;
58972;SDS011;44750;52.040;7.472;2022-12-18T18:27:33;9.53;;;2.57;;
58972;SDS011;44750;52.040;7.472;2022-12-18T18:32:33;3.03;;;2.20;;
58972;SDS011;44750;52.040;7.472;2022-12-18T18:37:33;3.00;;;2.10;;
58972;SDS011;44750;52.040;7.472;2022-12-18T18:42:34;5.07;;;2.33;;
58972;SDS011;44750;52.040;7.472;2022-12-18T18:47:34;4.97;;;3.47;;
58972;SDS011;44750;52.040;7.472;2022-12-18T18:52:34;3.80;;;2.67;;
58972;SDS011;44750;52.040;7.472;2022-12-18T18:57:34;2.97;;;2.60;;
58972;SDS011;44750;52.040;7.472;2022-12-18T19:02:34;8.20;;;2.63;;
58972;SDS011;44750;52.040;7.472;2022-12-18T19:07:35;7.85;;;3.88;;
58972;SDS011;44750;52.040;7.472;2022-12-18T19:12:35;14.35;;;8.30;;
58972;SDS011;44750;52.040;7.472;2022-12-18T19:17:35;16.77;;;7.30;;
58972;SDS011;44750;52.040;7.472;2022-12-18T19:22:35;5.35;;;3.53;;
58972;SDS011;44750;52.040;7.472;2022-12-18T19:27:37;7.90;;;3.95;;
58972;SDS011;44750;52.040;7.472;2022-12-18T19:32:37;2.55;;;2.33;;
58972;SDS011;44750;52.040;7.472;2022-12-18T19:37:37;2.15;;;1.95;;
58972;SDS011;44750;52.040;7.472;2022-12-18T19:42:38;4.43;;;3.33;;
58972;SDS011;44750;52.040;7.472;2022-12-18T19:47:38;8.18;;;2.78;;
58972;SDS011;44750;52.040;7.472;2022-12-18T19:52:39;5.28;;;3.15;;
58972;SDS011;44750;52.040;7.472;2022-12-18T19:57:39;4.72;;;3.17;;
58972;SDS011;44750;52.040;7.472;2022-12-18T20:02:39;2.63;;;2.43;;
58972;SDS011;44750;52.040;7.472;2022-12-18T20:07:39;4.25;;;3.42;;
58972;SDS011;44750;52.040;7.472;2022-12-18T20:12:40;4.47;;;3.53;;
58972;SDS011;44750;52.040;7.472;2022-12-18T20:17:42;3.80;;;3.35;;
58972;SDS011;44750;52.040;7.472;2022-12-18T20:22:43;6.75;;;4.38;;
58972;SDS011;44750;52.040;7.472;2022-12-18T20:27:43;3.63;;;3.17;;
58972;SDS011;44750;52.040;7.472;2022-12-18T20:32:43;13.07;;;5.17;;
58972;SDS011;44750;52.040;7.472;2022-12-18T20:37:43;6.55;;;5.63;;
58972;SDS011;44750;52.040;7.472;2022-12-18T20:42:44;4.53;;;3.60;;
58972;SDS011;44750;52.040;7.472;2022-12-18T20:47:44;4.45;;;3.88;;
58972;SDS011;44750;52.040;7.472;2022-12-18T20:52:46;4.73;;;4.33;;
58972;SDS011;44750;52.040;7.472;2022-12-18T20:57:46;3.95;;;3.55;;
58972;SDS011;44750;52.040;7.472;2022-12-18T21:02:46;7.30;;;3.90;;
58972;SDS011;44750;52.040;7.472;2022-12-18T21:07:47;6.95;;;5.05;;
58972;SDS011;44750;52.040;7.472;2022-12-18T21:12:47;7.38;;;4.57;;
58972;SDS011;44750;52.040;7.472;2022-12-18T21:17:47;14.43;;;8.65;;
58972;SDS011;44750;52.040;7.472;2022-12-18T21:22:47;8.20;;;6.78;;
58972;SDS011;44750;52.040;7.472;2022-12-18T21:27:47;8.10;;;6.57;;
58972;SDS011;44750;52.040;7.472;2022-12-18T21:32:48;9.23;;;5.70;;
58972;SDS011;44750;52.040;7.472;2022-12-18T21:37:48;5.03;;;4.40;;
58972;SDS011;44750;52.040;7.472;2022-12-18T21:42:48;5.82;;;5.00;;
58972;SDS011;44750;52.040;7.472;2022-12-18T21:47:49;6.93;;;5.23;;
58972;SDS011;44750;52.040;7.472;2022-12-18T21:52:49;7.15;;;4.65;;
58972;SDS011;44750;52.040;7.472;2022-12-18T21:57:49;7.97;;;5.87;;
58972;SDS011;44750;52.040;7.472;2022-12-18T22:02:49;15.03;;;7.27;;
58972;SDS011;44750;52.040;7.472;2022-12-18T22:07:50;7.80;;;5.32;;
58972;SDS011;44750;52.040;7.472;2022-12-18T22:12:50;9.20;;;6.17;;
58972;SDS011;44750;52.040;7.472;2022-12-18T22:17:53;12.23;;;7.75;;
58972;SDS011;44750;52.040;7.472;2022-12-18T22:22:53;11.05;;;6.45;;
58972;SDS011;44750;52.040;7.472;2022-12-18T22:27:54;7.68;;;6.00;;
58972;SDS011;44750;52.040;7.472;2022-12-18T22:32:54;5.45;;;4.85;;
58972;SDS011;44750;52.040;7.472;2022-12-18T22:37:54;6.20;;;4.60;;
58972;SDS011;44750;52.040;7.472;2022-12-18T22:42:57;5.75;;;4.90;;
58972;SDS011;44750;52.040;7.472;2022-12-18T22:47:58;7.38;;;5.50;;
58972;SDS011;44750;52.040;7.472;2022-12-18T22:52:58;9.70;;;7.30;;
58972;SDS011;44750;52.040;7.472;2022-12-18T22:57:58;12.23;;;6.00;;
58972;SDS011;44750;52.040;7.472;2022-12-18T23:02:58;8.50;;;5.18;;
58972;SDS011;44750;52.040;7.472;2022-12-18T23:07:59;10.32;;;6.95;;
58972;SDS011;44750;52.040;7.472;2022-12-18T23:12:59;8.63;;;6.05;;
58972;SDS011;44750;52.040;7.472;2022-12-18T23:17:59;13.00;;;5.72;;
58972;SDS011;44750;52.040;7.472;2022-12-18T23:22:59;8.43;;;4.97;;
58972;SDS011;44750;52.040;7.472;2022-12-18T23:28:00;17.70;;;5.93;;
58972;SDS011;44750;52.040;7.472;2022-12-18T23:33:00;7.90;;;5.75;;
58972;SDS011;44750;52.040;7.472;2022-12-18T23:38:00;9.48;;;6.10;;
58972;SDS011;44750;52.040;7.472;2022-12-18T23:43:00;8.18;;;5.75;;
58972;SDS011;44750;52.040;7.472;2022-12-18T23:48:00;6.28;;;5.53;;
58972;SDS011;44750;52.040;7.472;2022-12-18T23:53:01;7.65;;;5.28;;
58972;SDS011;44750;52.040;7.472;2022-12-18T23:58:01;7.82;;;6.70;;
